Eleven Point River (Missouri), Ravenden Springs (07072000)

StateMissouriCurrentPotential (878 cfs)
RiverEleven Point RiverFlood - The river is flooding. Obstacles can be treacherous or deadly. The river should be avoided at this stage for casual trips and definitely for the inexperienced. Trips should be attempted only with protective gear and equipment.Flood(none)
Updated2019-10-13 19:45 (1 hour ago)High - The river is high and potentially dangerous, especially for the young and / or inexperienced. Normal stream obstacles are sometimes difficult to navigate. Extended distances can be attempted, but canoe travel may not be advisable.High(none)
Discharge878 cfs (median: 506 cfs)Good - Conditions are ideal for a canoe or kayak. Boats typically will drag on fewer than one-quarter of riffles, if at all, and portages are unnecessary or rare. Normal float lengths can be attempted without a problem.Good(none)
Height3.42 feetLow - River is low but can still be floated. Some riffles are okay but most come with significant dragging and might need a portage. Float lengths should be reduced to accommodate low flow, dragging, and portages.Low(none)
TrendSteady (falling over 24 hours)Poor - River is too low to float comfortably. Most or all riffles will drag or must be portaged and some obstacles (such as slick shelf rock) cause undue problems. Avoid the river at this stage for casual paddling trips.Poor(none)
USGSExternal icon USGS Site for Ravenden Springs (07072000)LocationExternal icon Google Maps

Trending Data

Plot Image
ObservationHeightDischargeMaximum
Discharge
Minimum
Discharge
Mean
Discharge
P05P10P20P25P50
(Median)
P75P80P90P95
2019-10-13 19:45 3.42 878 2630 (2015) 266 (1957) 615 330 352 398 414 506 669 754 853 1770
2019-10-13 18:45 3.42 878 2630 (2015) 266 (1957) 615 330 352 398 414 506 669 754 853 1770
2019-10-13 17:45 3.42 878 2630 (2015) 266 (1957) 615 330 352 398 414 506 669 754 853 1770
2019-10-13 16:45 3.44 890 2630 (2015) 266 (1957) 615 330 352 398 414 506 669 754 853 1770
2019-10-13 15:45 3.43 884 2630 (2015) 266 (1957) 615 330 352 398 414 506 669 754 853 1770
2019-10-13 14:45 3.43 884 2630 (2015) 266 (1957) 615 330 352 398 414 506 669 754 853 1770
2019-10-13 13:45 3.43 884 2630 (2015) 266 (1957) 615 330 352 398 414 506 669 754 853 1770
2019-10-13 12:45 3.43 884 2630 (2015) 266 (1957) 615 330 352 398 414 506 669 754 853 1770
2019-10-13 11:45 3.41 872 2630 (2015) 266 (1957) 615 330 352 398 414 506 669 754 853 1770
2019-10-13 10:45 3.43 884 2630 (2015) 266 (1957) 615 330 352 398 414 506 669 754 853 1770
2019-10-13 09:45 3.44 890 2630 (2015) 266 (1957) 615 330 352 398 414 506 669 754 853 1770
2019-10-13 08:45 3.42 878 2630 (2015) 266 (1957) 615 330 352 398 414 506 669 754 853 1770
2019-10-13 07:45 3.43 884 2630 (2015) 266 (1957) 615 330 352 398 414 506 669 754 853 1770
2019-10-13 06:45 3.43 884 2630 (2015) 266 (1957) 615 330 352 398 414 506 669 754 853 1770
2019-10-13 05:45 3.43 884 2630 (2015) 266 (1957) 615 330 352 398 414 506 669 754 853 1770
2019-10-13 04:45 3.43 884 2630 (2015) 266 (1957) 615 330 352 398 414 506 669 754 853 1770
2019-10-13 03:45 3.43 884 2630 (2015) 266 (1957) 615 330 352 398 414 506 669 754 853 1770
2019-10-13 02:45 3.43 884 2630 (2015) 266 (1957) 615 330 352 398 414 506 669 754 853 1770
2019-10-13 01:45 3.43 884 2630 (2015) 266 (1957) 615 330 352 398 414 506 669 754 853 1770
2019-10-13 00:45 3.43 884 2630 (2015) 266 (1957) 615 330 352 398 414 506 669 754 853 1770
2019-10-12 23:45 3.43 884 2440 (1950) 266 (1957) 606 335 366 405 413 521 661 757 830 1400
2019-10-12 22:45 3.44 890 2440 (1950) 266 (1957) 606 335 366 405 413 521 661 757 830 1400
2019-10-12 21:45 3.43 884 2440 (1950) 266 (1957) 606 335 366 405 413 521 661 757 830 1400
2019-10-12 20:45 3.44 890 2440 (1950) 266 (1957) 606 335 366 405 413 521 661 757 830 1400
2019-10-12 19:45 3.43 884 2440 (1950) 266 (1957) 606 335 366 405 413 521 661 757 830 1400
2019-10-12 18:45 3.44 890 2440 (1950) 266 (1957) 606 335 366 405 413 521 661 757 830 1400
2019-10-12 17:45 3.44 890 2440 (1950) 266 (1957) 606 335 366 405 413 521 661 757 830 1400
2019-10-12 16:45 3.45 896 2440 (1950) 266 (1957) 606 335 366 405 413 521 661 757 830 1400
2019-10-12 15:45 3.44 890 2440 (1950) 266 (1957) 606 335 366 405 413 521 661 757 830 1400
2019-10-12 14:45 3.44 890 2440 (1950) 266 (1957) 606 335 366 405 413 521 661 757 830 1400
2019-10-12 13:45 3.44 890 2440 (1950) 266 (1957) 606 335 366 405 413 521 661 757 830 1400
2019-10-12 12:45 3.44 890 2440 (1950) 266 (1957) 606 335 366 405 413 521 661 757 830 1400
2019-10-12 11:45 3.41 872 2440 (1950) 266 (1957) 606 335 366 405 413 521 661 757 830 1400
2019-10-12 10:45 3.45 896 2440 (1950) 266 (1957) 606 335 366 405 413 521 661 757 830 1400
2019-10-12 09:45 3.45 896 2440 (1950) 266 (1957) 606 335 366 405 413 521 661 757 830 1400
2019-10-12 08:45 3.44 890 2440 (1950) 266 (1957) 606 335 366 405 413 521 661 757 830 1400
2019-10-12 07:45 3.45 896 2440 (1950) 266 (1957) 606 335 366 405 413 521 661 757 830 1400
2019-10-12 06:45 3.45 896 2440 (1950) 266 (1957) 606 335 366 405 413 521 661 757 830 1400
2019-10-12 05:45 3.46 902 2440 (1950) 266 (1957) 606 335 366 405 413 521 661 757 830 1400
2019-10-12 04:45 3.46 902 2440 (1950) 266 (1957) 606 335 366 405 413 521 661 757 830 1400
2019-10-12 03:45 3.46 902 2440 (1950) 266 (1957) 606 335 366 405 413 521 661 757 830 1400
2019-10-12 02:45 3.46 902 2440 (1950) 266 (1957) 606 335 366 405 413 521 661 757 830 1400
2019-10-12 01:45 3.47 908 2440 (1950) 266 (1957) 606 335 366 405 413 521 661 757 830 1400
2019-10-12 00:45 3.46 902 2440 (1950) 266 (1957) 606 335 366 405 413 521 661 757 830 1400
2019-10-11 23:45 3.47 908 2520 (2010) 266 (1957) 599 313 361 406 415 510 676 761 828 1030
2019-10-11 22:45 3.48 914 2520 (2010) 266 (1957) 599 313 361 406 415 510 676 761 828 1030
2019-10-11 21:45 3.48 914 2520 (2010) 266 (1957) 599 313 361 406 415 510 676 761 828 1030
2019-10-11 20:45 3.49 920 2520 (2010) 266 (1957) 599 313 361 406 415 510 676 761 828 1030
2019-10-11 19:45 3.49 920 2520 (2010) 266 (1957) 599 313 361 406 415 510 676 761 828 1030
2019-10-11 18:45 3.49 920 2520 (2010) 266 (1957) 599 313 361 406 415 510 676 761 828 1030
2019-10-11 17:45 3.51 933 2520 (2010) 266 (1957) 599 313 361 406 415 510 676 761 828 1030
2019-10-11 16:45 3.51 933 2520 (2010) 266 (1957) 599 313 361 406 415 510 676 761 828 1030
2019-10-11 15:45 3.50 926 2520 (2010) 266 (1957) 599 313 361 406 415 510 676 761 828 1030
2019-10-11 14:45 3.48 914 2520 (2010) 266 (1957) 599 313 361 406 415 510 676 761 828 1030
2019-10-11 13:45 3.49 920 2520 (2010) 266 (1957) 599 313 361 406 415 510 676 761 828 1030
2019-10-11 12:45 3.45 896 2520 (2010) 266 (1957) 599 313 361 406 415 510 676 761 828 1030
2019-10-11 11:45 3.45 896 2520 (2010) 266 (1957) 599 313 361 406 415 510 676 761 828 1030
2019-10-11 10:45 3.49 920 2520 (2010) 266 (1957) 599 313 361 406 415 510 676 761 828 1030
2019-10-11 09:45 3.47 908 2520 (2010) 266 (1957) 599 313 361 406 415 510 676 761 828 1030
2019-10-11 08:45 3.47 908 2520 (2010) 266 (1957) 599 313 361 406 415 510 676 761 828 1030
2019-10-11 07:45 3.50 926 2520 (2010) 266 (1957) 599 313 361 406 415 510 676 761 828 1030
2019-10-11 06:45 3.45 896 2520 (2010) 266 (1957) 599 313 361 406 415 510 676 761 828 1030
2019-10-11 05:45 3.46 902 2520 (2010) 266 (1957) 599 313 361 406 415 510 676 761 828 1030
2019-10-11 04:45 3.40 866 2520 (2010) 266 (1957) 599 313 361 406 415 510 676 761 828 1030
2019-10-11 03:45 3.42 878 2520 (2010) 266 (1957) 599 313 361 406 415 510 676 761 828 1030
2019-10-11 02:45 3.42 878 2520 (2010) 266 (1957) 599 313 361 406 415 510 676 761 828 1030
2019-10-11 01:45 3.42 878 2520 (2010) 266 (1957) 599 313 361 406 415 510 676 761 828 1030
2019-10-11 00:45 3.41 872 2520 (2010) 266 (1957) 599 313 361 406 415 510 676 761 828 1030
2019-10-10 23:45 3.42 878 5260 (2010) 270 (1957) 634 306 356 404 425 523 684 778 900 1050
2019-10-10 22:45 3.41 872 5260 (2010) 270 (1957) 634 306 356 404 425 523 684 778 900 1050
2019-10-10 21:45 3.42 878 5260 (2010) 270 (1957) 634 306 356 404 425 523 684 778 900 1050
2019-10-10 20:45 3.41 872 5260 (2010) 270 (1957) 634 306 356 404 425 523 684 778 900 1050
2019-10-10 19:45 3.41 872 5260 (2010) 270 (1957) 634 306 356 404 425 523 684 778 900 1050
2019-10-10 18:45 3.42 878 5260 (2010) 270 (1957) 634 306 356 404 425 523 684 778 900 1050
2019-10-10 17:45 3.42 878 5260 (2010) 270 (1957) 634 306 356 404 425 523 684 778 900 1050
2019-10-10 16:45 3.42 878 5260 (2010) 270 (1957) 634 306 356 404 425 523 684 778 900 1050
2019-10-10 15:45 3.40 866 5260 (2010) 270 (1957) 634 306 356 404 425 523 684 778 900 1050
2019-10-10 14:45 3.39 859 5260 (2010) 270 (1957) 634 306 356 404 425 523 684 778 900 1050
2019-10-10 13:45 3.39 859 5260 (2010) 270 (1957) 634 306 356 404 425 523 684 778 900 1050
2019-10-10 12:45 3.39 859 5260 (2010) 270 (1957) 634 306 356 404 425 523 684 778 900 1050
2019-10-10 11:45 3.38 853 5260 (2010) 270 (1957) 634 306 356 404 425 523 684 778 900 1050
2019-10-10 10:45 3.40 866 5260 (2010) 270 (1957) 634 306 356 404 425 523 684 778 900 1050
2019-10-10 09:45 3.42 878 5260 (2010) 270 (1957) 634 306 356 404 425 523 684 778 900 1050
2019-10-10 08:45 3.42 878 5260 (2010) 270 (1957) 634 306 356 404 425 523 684 778 900 1050
2019-10-10 07:45 3.43 884 5260 (2010) 270 (1957) 634 306 356 404 425 523 684 778 900 1050
2019-10-10 06:45 3.43 884 5260 (2010) 270 (1957) 634 306 356 404 425 523 684 778 900 1050
2019-10-10 05:45 3.43 884 5260 (2010) 270 (1957) 634 306 356 404 425 523 684 778 900 1050
2019-10-10 04:45 3.43 884 5260 (2010) 270 (1957) 634 306 356 404 425 523 684 778 900 1050
2019-10-10 03:45 3.43 884 5260 (2010) 270 (1957) 634 306 356 404 425 523 684 778 900 1050
2019-10-10 02:45 3.42 878 5260 (2010) 270 (1957) 634 306 356 404 425 523 684 778 900 1050
2019-10-10 01:45 3.43 884 5260 (2010) 270 (1957) 634 306 356 404 425 523 684 778 900 1050
2019-10-10 00:45 3.42 878 5260 (2010) 270 (1957) 634 306 356 404 425 523 684 778 900 1050
2019-10-09 23:45 3.43 884 6190 (2010) 266 (1957) 660 309 357 405 431 517 690 786 919 1160
2019-10-09 22:45 3.43 884 6190 (2010) 266 (1957) 660 309 357 405 431 517 690 786 919 1160
2019-10-09 21:45 3.43 884 6190 (2010) 266 (1957) 660 309 357 405 431 517 690 786 919 1160
2019-10-09 20:45 3.43 884 6190 (2010) 266 (1957) 660 309 357 405 431 517 690 786 919 1160
2019-10-09 19:45 3.43 884 6190 (2010) 266 (1957) 660 309 357 405 431 517 690 786 919 1160
2019-10-09 18:45 3.43 884 6190 (2010) 266 (1957) 660 309 357 405 431 517 690 786 919 1160
2019-10-09 16:30 3.44 890 6190 (2010) 266 (1957) 660 309 357 405 431 517 690 786 919 1160
2019-10-09 15:45 3.40 866 6190 (2010) 266 (1957) 660 309 357 405 431 517 690 786 919 1160
2019-10-09 14:45 3.43 884 6190 (2010) 266 (1957) 660 309 357 405 431 517 690 786 919 1160
2019-10-09 13:45 3.40 866 6190 (2010) 266 (1957) 660 309 357 405 431 517 690 786 919 1160
2019-10-09 12:45 3.44 890 6190 (2010) 266 (1957) 660 309 357 405 431 517 690 786 919 1160
2019-10-09 11:45 3.44 890 6190 (2010) 266 (1957) 660 309 357 405 431 517 690 786 919 1160
2019-10-09 10:45 3.43 884 6190 (2010) 266 (1957) 660 309 357 405 431 517 690 786 919 1160
2019-10-09 09:45 3.44 890 6190 (2010) 266 (1957) 660 309 357 405 431 517 690 786 919 1160
2019-10-09 08:45 3.44 890 6190 (2010) 266 (1957) 660 309 357 405 431 517 690 786 919 1160
2019-10-09 07:45 3.44 890 6190 (2010) 266 (1957) 660 309 357 405 431 517 690 786 919 1160
2019-10-09 06:45 3.44 890 6190 (2010) 266 (1957) 660 309 357 405 431 517 690 786 919 1160
2019-10-09 05:45 3.45 896 6190 (2010) 266 (1957) 660 309 357 405 431 517 690 786 919 1160
2019-10-09 04:45 3.45 896 6190 (2010) 266 (1957) 660 309 357 405 431 517 690 786 919 1160
2019-10-09 03:45 3.45 896 6190 (2010) 266 (1957) 660 309 357 405 431 517 690 786 919 1160
2019-10-09 02:45 3.45 896 6190 (2010) 266 (1957) 660 309 357 405 431 517 690 786 919 1160
2019-10-09 01:45 3.46 902 6190 (2010) 266 (1957) 660 309 357 405 431 517 690 786 919 1160
2019-10-09 00:45 3.45 896 6190 (2010) 266 (1957) 660 309 357 405 431 517 690 786 919 1160
2019-10-08 23:45 3.46 902 1820 (1950) 270 (1957) 577 309 358 405 436 517 675 716 856 1010
2019-10-08 22:45 3.46 902 1820 (1950) 270 (1957) 577 309 358 405 436 517 675 716 856 1010
2019-10-08 21:45 3.46 902 1820 (1950) 270 (1957) 577 309 358 405 436 517 675 716 856 1010
2019-10-08 20:45 3.46 902 1820 (1950) 270 (1957) 577 309 358 405 436 517 675 716 856 1010
2019-10-08 19:45 3.47 908 1820 (1950) 270 (1957) 577 309 358 405 436 517 675 716 856 1010
2019-10-08 18:45 3.47 908 1820 (1950) 270 (1957) 577 309 358 405 436 517 675 716 856 1010
2019-10-08 17:45 3.47 908 1820 (1950) 270 (1957) 577 309 358 405 436 517 675 716 856 1010
2019-10-08 16:45 3.48 914 1820 (1950) 270 (1957) 577 309 358 405 436 517 675 716 856 1010
2019-10-08 15:45 3.48 914 1820 (1950) 270 (1957) 577 309 358 405 436 517 675 716 856 1010
2019-10-08 14:45 3.48 914 1820 (1950) 270 (1957) 577 309 358 405 436 517 675 716 856 1010
2019-10-08 13:45 3.48 914 1820 (1950) 270 (1957) 577 309 358 405 436 517 675 716 856 1010
2019-10-08 12:45 3.48 914 1820 (1950) 270 (1957) 577 309 358 405 436 517 675 716 856 1010
2019-10-08 11:45 3.48 914 1820 (1950) 270 (1957) 577 309 358 405 436 517 675 716 856 1010
2019-10-08 10:45 3.48 914 1820 (1950) 270 (1957) 577 309 358 405 436 517 675 716 856 1010
2019-10-08 09:45 3.49 920 1820 (1950) 270 (1957) 577 309 358 405 436 517 675 716 856 1010
2019-10-08 08:45 3.49 920 1820 (1950) 270 (1957) 577 309 358 405 436 517 675 716 856 1010
2019-10-08 07:45 3.49 920 1820 (1950) 270 (1957) 577 309 358 405 436 517 675 716 856 1010
2019-10-08 06:45 3.49 920 1820 (1950) 270 (1957) 577 309 358 405 436 517 675 716 856 1010
2019-10-08 05:45 3.50 926 1820 (1950) 270 (1957) 577 309 358 405 436 517 675 716 856 1010
2019-10-08 04:45 3.50 926 1820 (1950) 270 (1957) 577 309 358 405 436 517 675 716 856 1010
2019-10-08 03:45 3.50 926 1820 (1950) 270 (1957) 577 309 358 405 436 517 675 716 856 1010
2019-10-08 02:45 3.50 926 1820 (1950) 270 (1957) 577 309 358 405 436 517 675 716 856 1010
2019-10-08 01:45 3.50 926 1820 (1950) 270 (1957) 577 309 358 405 436 517 675 716 856 1010
2019-10-08 00:45 3.50 926 1820 (1950) 270 (1957) 577 309 358 405 436 517 675 716 856 1010
2019-10-07 23:45 3.51 933 2710 (1950) 274 (1957) 589 323 365 405 436 518 659 704 813 1100
2019-10-07 22:45 3.51 933 2710 (1950) 274 (1957) 589 323 365 405 436 518 659 704 813 1100
2019-10-07 21:45 3.52 939 2710 (1950) 274 (1957) 589 323 365 405 436 518 659 704 813 1100
2019-10-07 20:45 3.52 939 2710 (1950) 274 (1957) 589 323 365 405 436 518 659 704 813 1100
2019-10-07 19:45 3.53 945 2710 (1950) 274 (1957) 589 323 365 405 436 518 659 704 813 1100
2019-10-07 18:45 3.54 951 2710 (1950) 274 (1957) 589 323 365 405 436 518 659 704 813 1100
2019-10-07 17:45 3.55 957 2710 (1950) 274 (1957) 589 323 365 405 436 518 659 704 813 1100
2019-10-07 16:45 3.55 957 2710 (1950) 274 (1957) 589 323 365 405 436 518 659 704 813 1100
2019-10-07 15:45 3.56 963 2710 (1950) 274 (1957) 589 323 365 405 436 518 659 704 813 1100
2019-10-07 14:45 3.55 957 2710 (1950) 274 (1957) 589 323 365 405 436 518 659 704 813 1100
2019-10-07 13:45 3.55 957 2710 (1950) 274 (1957) 589 323 365 405 436 518 659 704 813 1100
2019-10-07 12:45 3.56 963 2710 (1950) 274 (1957) 589 323 365 405 436 518 659 704 813 1100
2019-10-07 11:45 3.56 963 2710 (1950) 274 (1957) 589 323 365 405 436 518 659 704 813 1100
2019-10-07 10:45 3.57 969 2710 (1950) 274 (1957) 589 323 365 405 436 518 659 704 813 1100
2019-10-07 09:45 3.57 969 2710 (1950) 274 (1957) 589 323 365 405 436 518 659 704 813 1100
2019-10-07 08:45 3.57 969 2710 (1950) 274 (1957) 589 323 365 405 436 518 659 704 813 1100
2019-10-07 07:45 3.57 969 2710 (1950) 274 (1957) 589 323 365 405 436 518 659 704 813 1100
2019-10-07 06:45 3.57 969 2710 (1950) 274 (1957) 589 323 365 405 436 518 659 704 813 1100
2019-10-07 05:45 3.58 975 2710 (1950) 274 (1957) 589 323 365 405 436 518 659 704 813 1100
2019-10-07 04:45 3.58 975 2710 (1950) 274 (1957) 589 323 365 405 436 518 659 704 813 1100
2019-10-07 03:45 3.58 975 2710 (1950) 274 (1957) 589 323 365 405 436 518 659 704 813 1100
2019-10-07 02:45 3.57 969 2710 (1950) 274 (1957) 589 323 365 405 436 518 659 704 813 1100
2019-10-07 01:45 3.56 963 2710 (1950) 274 (1957) 589 323 365 405 436 518 659 704 813 1100
2019-10-07 00:45 3.56 963 2710 (1950) 274 (1957) 589 323 365 405 436 518 659 704 813 1100
2019-10-06 23:45 3.55 957 3410 (1950) 279 (1957) 610 314 350 409 441 525 666 722 819 1200
2019-10-06 22:45 3.52 939 3410 (1950) 279 (1957) 610 314 350 409 441 525 666 722 819 1200
2019-10-06 21:45 3.50 926 3410 (1950) 279 (1957) 610 314 350 409 441 525 666 722 819 1200
2019-10-06 20:45 3.50 926 3410 (1950) 279 (1957) 610 314 350 409 441 525 666 722 819 1200
2019-10-06 19:45 3.49 920 3410 (1950) 279 (1957) 610 314 350 409 441 525 666 722 819 1200
2019-10-06 18:45 3.45 896 3410 (1950) 279 (1957) 610 314 350 409 441 525 666 722 819 1200
2019-10-06 17:45 3.44 890 3410 (1950) 279 (1957) 610 314 350 409 441 525 666 722 819 1200
2019-10-06 16:45 3.43 884 3410 (1950) 279 (1957) 610 314 350 409 441 525 666 722 819 1200
2019-10-06 15:45 3.43 884 3410 (1950) 279 (1957) 610 314 350 409 441 525 666 722 819 1200
2019-10-06 14:45 3.42 878 3410 (1950) 279 (1957) 610 314 350 409 441 525 666 722 819 1200
2019-10-06 13:45 3.42 878 3410 (1950) 279 (1957) 610 314 350 409 441 525 666 722 819 1200
2019-10-06 12:45 3.42 878 3410 (1950) 279 (1957) 610 314 350 409 441 525 666 722 819 1200
2019-10-06 11:45 3.42 878 3410 (1950) 279 (1957) 610 314 350 409 441 525 666 722 819 1200
2019-10-06 10:45 3.41 872 3410 (1950) 279 (1957) 610 314 350 409 441 525 666 722 819 1200
2019-10-06 09:45 3.41 872 3410 (1950) 279 (1957) 610 314 350 409 441 525 666 722 819 1200
2019-10-06 08:45 3.41 872 3410 (1950) 279 (1957) 610 314 350 409 441 525 666 722 819 1200
2019-10-06 07:45 3.41 872 3410 (1950) 279 (1957) 610 314 350 409 441 525 666 722 819 1200
2019-10-06 06:45 3.41 872 3410 (1950) 279 (1957) 610 314 350 409 441 525 666 722 819 1200
2019-10-06 05:45 3.41 872 3410 (1950) 279 (1957) 610 314 350 409 441 525 666 722 819 1200
2019-10-06 04:45 3.40 866 3410 (1950) 279 (1957) 610 314 350 409 441 525 666 722 819 1200
2019-10-06 03:45 3.40 866 3410 (1950) 279 (1957) 610 314 350 409 441 525 666 722 819 1200
2019-10-06 02:45 3.41 872 3410 (1950) 279 (1957) 610 314 350 409 441 525 666 722 819 1200
2019-10-06 01:45 3.40 866 3410 (1950) 279 (1957) 610 314 350 409 441 525 666 722 819 1200
2019-10-06 00:45 3.40 866 3410 (1950) 279 (1957) 610 314 350 409 441 525 666 722 819 1200

A total of 187 rows are displayed for years 1930 through 2016.

Trips for Eleven Point River (Missouri), Ravenden Springs (07072000)

DateStartEndDistanceConditionDischargeHeightFishingDetails

A total of 0 rows are displayed.

Condition Descriptions

Fishing Conditions

Fish Species

Notes

Classic Trip List

The classic River Trips application is still available for use. It is updated with the new system using a data retrofit. It is no longer maintained. The original River Trips application is no longer updated (as of 1 Dec 2016) but can be checked for errors or for the condition of the data before it was converted to the new system.